createdAt,value
2019-05-11T00:00:40.698Z,9.97
2019-05-11T00:03:09.133Z,9.20
2019-05-11T00:05:37.537Z,10.13
2019-05-11T00:08:06.121Z,9.00
2019-05-11T00:10:34.509Z,9.60
2019-05-11T00:13:02.964Z,9.07
2019-05-11T00:15:31.374Z,10.30
2019-05-11T00:17:59.794Z,9.70
2019-05-11T00:20:28.284Z,9.13
2019-05-11T00:22:56.679Z,9.40
2019-05-11T00:25:25.211Z,10.07
2019-05-11T00:27:53.614Z,10.90
2019-05-11T00:30:22.034Z,9.70
2019-05-11T00:32:50.456Z,10.07
2019-05-11T00:35:18.870Z,10.73
2019-05-11T00:37:47.315Z,10.23
2019-05-11T00:40:15.867Z,10.93
2019-05-11T00:42:44.364Z,10.27
2019-05-11T00:45:13.000Z,9.20
2019-05-11T00:47:41.460Z,10.03
2019-05-11T00:50:11.046Z,10.27
2019-05-11T00:52:39.441Z,9.70
2019-05-11T00:55:08.823Z,10.13
2019-05-11T00:57:37.225Z,9.90
2019-05-11T01:00:08.274Z,9.70
2019-05-11T01:02:36.860Z,11.17
2019-05-11T01:05:06.708Z,9.77
2019-05-11T01:07:35.195Z,10.00
2019-05-11T01:10:21.819Z,10.83
2019-05-11T01:12:37.386Z,10.30
2019-05-11T01:15:06.274Z,12.00
2019-05-11T01:17:34.676Z,11.87
2019-05-11T01:20:03.274Z,11.20
2019-05-11T01:22:31.698Z,11.10
2019-05-11T01:25:00.124Z,10.20
2019-05-11T01:27:28.545Z,10.57
2019-05-11T01:29:57.021Z,11.60
2019-05-11T01:32:25.446Z,11.87
2019-05-11T01:34:53.855Z,11.53
2019-05-11T01:37:22.334Z,10.90
2019-05-11T01:39:50.785Z,12.20
2019-05-11T01:42:19.210Z,10.80
2019-05-11T01:44:47.627Z,10.37
2019-05-11T01:47:16.054Z,11.00
2019-05-11T01:49:44.465Z,12.60
2019-05-11T01:52:12.869Z,11.40
2019-05-11T01:54:41.378Z,11.40
2019-05-11T01:57:09.806Z,11.17
2019-05-11T01:59:38.376Z,11.00
2019-05-11T02:02:06.806Z,11.47
2019-05-11T02:04:35.217Z,13.03
2019-05-11T02:07:03.722Z,11.60
2019-05-11T02:09:32.206Z,11.73
2019-05-11T02:12:00.633Z,11.67
2019-05-11T02:14:29.203Z,11.80
2019-05-11T02:16:57.816Z,10.50
2019-05-11T02:19:26.266Z,12.20
2019-05-11T02:21:54.665Z,11.30
2019-05-11T02:24:23.445Z,12.50
2019-05-11T02:26:51.878Z,12.10
2019-05-11T02:29:20.314Z,13.00
2019-05-11T02:31:48.716Z,12.40
2019-05-11T02:34:17.143Z,12.70
2019-05-11T02:36:45.573Z,13.87
2019-05-11T02:39:14.047Z,13.63
2019-05-11T02:41:43.015Z,14.60
2019-05-11T02:44:11.584Z,13.80
2019-05-11T02:46:40.013Z,14.00
2019-05-11T02:49:08.495Z,13.70
2019-05-11T02:51:38.568Z,13.20
2019-05-11T02:54:07.969Z,13.43
2019-05-11T02:56:36.396Z,12.77
2019-05-11T02:59:04.876Z,13.00
2019-05-11T03:01:33.288Z,12.70
2019-05-11T03:04:01.723Z,13.60
2019-05-11T03:06:30.149Z,14.97
2019-05-11T03:08:58.524Z,13.60
2019-05-11T03:11:26.958Z,14.80
2019-05-11T03:13:55.369Z,13.60
2019-05-11T03:16:23.789Z,15.23
2019-05-11T03:18:52.312Z,13.67
2019-05-11T03:21:20.719Z,14.50
2019-05-11T03:23:49.176Z,14.70
2019-05-11T03:26:17.619Z,13.73
2019-05-11T03:28:46.033Z,17.37
2019-05-11T03:31:14.476Z,15.80
2019-05-11T03:33:42.882Z,14.90
2019-05-11T03:36:11.375Z,16.53
2019-05-11T03:38:39.771Z,17.97
2019-05-11T03:41:08.215Z,16.57
2019-05-11T03:43:36.685Z,17.10
2019-05-11T03:46:05.110Z,17.20
2019-05-11T03:48:33.536Z,16.10
2019-05-11T03:51:01.947Z,16.30
2019-05-11T03:53:30.344Z,18.20
2019-05-11T03:55:58.829Z,17.53
2019-05-11T03:58:27.300Z,16.80
2019-05-11T04:00:55.691Z,16.60
2019-05-11T04:03:24.169Z,16.37
2019-05-11T04:05:52.597Z,16.47
2019-05-11T04:08:21.022Z,18.57
2019-05-11T04:10:49.433Z,17.57
2019-05-11T04:13:17.826Z,18.83
2019-05-11T04:15:46.254Z,18.13
2019-05-11T04:18:14.699Z,18.50
2019-05-11T04:20:43.171Z,19.90
2019-05-11T04:23:11.607Z,19.67
2019-05-11T04:25:40.072Z,20.00
2019-05-11T04:28:08.576Z,20.97
2019-05-11T04:30:37.015Z,21.07
2019-05-11T04:33:05.498Z,20.73
2019-05-11T04:35:34.100Z,20.70
2019-05-11T04:38:02.517Z,19.40
2019-05-11T04:40:31.074Z,21.87
2019-05-11T04:42:59.495Z,21.07
2019-05-11T04:45:30.307Z,20.70
2019-05-11T04:47:58.057Z,21.03
2019-05-11T04:50:26.568Z,21.83
2019-05-11T04:52:55.065Z,21.63
2019-05-11T04:55:23.564Z,19.90
2019-05-11T04:57:52.004Z,20.63
2019-05-11T05:00:20.483Z,19.63
2019-05-11T05:02:48.885Z,20.00
2019-05-11T05:05:17.306Z,19.40
2019-05-11T05:07:48.893Z,17.83
2019-05-11T05:10:19.947Z,19.07
2019-05-11T05:12:50.396Z,18.90
2019-05-11T05:15:16.306Z,15.77
2019-05-11T05:17:44.790Z,16.83
2019-05-11T05:20:13.658Z,15.93
2019-05-11T05:22:42.082Z,15.20
2019-05-11T05:25:10.642Z,15.97
2019-05-11T05:27:39.105Z,15.53
2019-05-11T05:30:08.292Z,16.30
2019-05-11T05:32:37.212Z,17.47
2019-05-11T05:35:07.383Z,15.60
2019-05-11T05:37:37.030Z,16.43
2019-05-11T05:40:05.891Z,17.93
2019-05-11T05:42:34.369Z,17.50
2019-05-11T05:45:02.769Z,16.20
2019-05-11T05:47:31.201Z,16.27
2019-05-11T05:49:59.612Z,15.63
2019-05-11T05:52:28.049Z,17.00
2019-05-11T05:54:56.448Z,16.83
2019-05-11T05:57:24.874Z,15.53
2019-05-11T05:59:53.298Z,15.30
2019-05-11T06:02:21.737Z,13.80
2019-05-11T06:04:50.185Z,14.90
2019-05-11T06:07:18.588Z,15.77
2019-05-11T06:09:46.986Z,14.20
2019-05-11T06:12:15.519Z,14.20
2019-05-11T06:14:43.931Z,14.80
2019-05-11T06:17:12.525Z,15.53
2019-05-11T06:19:40.911Z,15.27
2019-05-11T06:22:09.386Z,14.60
2019-05-11T06:24:37.803Z,15.30
2019-05-11T06:27:06.338Z,14.30
2019-05-11T06:29:34.822Z,13.70
2019-05-11T06:32:03.263Z,13.60
2019-05-11T06:34:31.650Z,13.83
2019-05-11T06:37:00.190Z,13.30
2019-05-11T06:39:28.592Z,14.33
2019-05-11T06:41:57.009Z,12.30
2019-05-11T06:44:25.429Z,13.33
2019-05-11T06:46:53.878Z,12.80
2019-05-11T06:49:22.299Z,14.97
2019-05-11T06:51:50.726Z,14.87
2019-05-11T06:54:19.149Z,15.03
2019-05-11T06:56:47.573Z,15.93
2019-05-11T06:59:16.010Z,15.30
2019-05-11T07:01:44.484Z,16.03
2019-05-11T07:04:13.069Z,16.50
2019-05-11T07:06:41.478Z,17.07
2019-05-11T07:09:09.907Z,17.43
2019-05-11T07:11:38.329Z,16.90
2019-05-11T07:14:19.826Z,18.40
2019-05-11T07:16:36.941Z,18.57
2019-05-11T07:19:05.463Z,18.10
2019-05-11T07:21:33.920Z,18.07
2019-05-11T07:24:02.460Z,19.50
2019-05-11T07:26:30.916Z,18.77
2019-05-11T07:28:59.342Z,19.27
2019-05-11T07:31:27.777Z,19.50
2019-05-11T07:33:58.589Z,19.43
2019-05-11T07:36:28.237Z,20.90
2019-05-11T07:38:58.028Z,21.60
2019-05-11T07:41:28.083Z,22.47
2019-05-11T07:43:58.888Z,25.00
2019-05-11T07:46:28.855Z,24.17
2019-05-11T07:48:58.498Z,28.03
2019-05-11T07:51:28.736Z,28.27
2019-05-11T07:53:57.880Z,27.70
2019-05-11T07:56:28.562Z,25.97
2019-05-11T07:58:58.103Z,26.40
2019-05-11T08:01:28.166Z,27.80
2019-05-11T08:03:58.651Z,28.30
2019-05-11T08:06:28.528Z,28.40
2019-05-11T08:08:58.844Z,28.97
2019-05-11T08:11:30.787Z,28.93
2019-05-11T08:13:58.434Z,27.87
2019-05-11T08:16:28.545Z,29.00
2019-05-11T08:18:58.830Z,28.40
2019-05-11T08:21:28.367Z,31.40
2019-05-11T08:23:58.801Z,32.50
2019-05-11T08:26:28.241Z,34.63
2019-05-11T08:28:57.871Z,35.70
2019-05-11T08:31:27.955Z,38.13
2019-05-11T08:33:58.327Z,39.40
2019-05-11T08:36:28.859Z,42.03
2019-05-11T08:38:58.490Z,45.57
2019-05-11T08:41:28.144Z,48.27
2019-05-11T08:43:58.665Z,47.70
2019-05-11T08:46:27.910Z,50.07
2019-05-11T08:48:56.592Z,51.00
2019-05-11T08:51:24.990Z,46.87
2019-05-11T08:53:53.599Z,49.77
2019-05-11T08:56:22.098Z,47.83
2019-05-11T08:58:50.519Z,46.87
2019-05-11T09:01:19.032Z,46.00
2019-05-11T09:03:47.883Z,45.97
2019-05-11T09:06:17.918Z,45.70
2019-05-11T09:08:49.136Z,41.57
2019-05-11T09:11:19.085Z,43.90
2019-05-11T09:13:48.864Z,40.93
2019-05-11T09:16:18.921Z,39.53
2019-05-11T09:18:48.094Z,42.13
2019-05-11T09:21:18.777Z,40.10
2019-05-11T09:23:48.611Z,40.47
2019-05-11T09:26:18.125Z,39.40
2019-05-11T09:28:47.685Z,41.00
2019-05-11T09:31:18.629Z,41.07
2019-05-11T09:33:48.017Z,40.20
2019-05-11T09:36:18.142Z,39.00
2019-05-11T09:38:48.859Z,38.60
2019-05-11T09:41:18.119Z,41.30
2019-05-11T09:43:48.383Z,40.27
2019-05-11T09:46:18.946Z,44.73
2019-05-11T09:48:48.316Z,36.80
2019-05-11T09:51:18.495Z,38.90
2019-05-11T09:53:48.321Z,35.07
2019-05-11T09:56:18.335Z,35.90
2019-05-11T09:58:48.015Z,37.37
2019-05-11T10:01:18.279Z,37.40
2019-05-11T10:03:48.125Z,34.30
2019-05-11T10:06:19.042Z,35.70
2019-05-11T10:08:48.659Z,31.47
2019-05-11T10:11:18.927Z,33.23
2019-05-11T10:13:47.823Z,33.83
2019-05-11T10:16:17.912Z,37.37
2019-05-11T10:18:48.876Z,35.07
2019-05-11T10:21:18.803Z,34.77
2019-05-11T10:23:48.966Z,38.37
2019-05-11T10:26:18.715Z,36.93
2019-05-11T10:28:48.194Z,38.30
2019-05-11T10:31:18.001Z,34.50
2019-05-11T10:33:48.864Z,32.30
2019-05-11T10:36:18.844Z,29.10
2019-05-11T10:38:48.754Z,26.23
2019-05-11T10:41:18.275Z,27.63
2019-05-11T10:43:48.905Z,25.40
2019-05-11T10:46:23.147Z,26.20
2019-05-11T10:48:48.311Z,32.27
2019-05-11T10:51:18.465Z,26.70
2019-05-11T10:53:51.296Z,23.17
2019-05-11T10:56:17.830Z,24.30
2019-05-11T10:58:48.293Z,25.27
2019-05-11T11:01:18.189Z,27.10
2019-05-11T11:03:48.315Z,27.17
2019-05-11T11:06:18.783Z,24.73
2019-05-11T11:08:48.636Z,26.80
2019-05-11T11:11:18.505Z,23.17
2019-05-11T11:13:48.044Z,20.67
2019-05-11T11:16:34.665Z,23.50
2019-05-11T11:18:48.588Z,21.87
2019-05-11T11:21:22.407Z,17.40
2019-05-11T11:23:48.161Z,17.77
2019-05-11T11:26:18.419Z,16.70
2019-05-11T11:28:47.702Z,17.30
2019-05-11T11:31:18.552Z,18.70
2019-05-11T11:33:48.871Z,18.13
2019-05-11T11:36:17.925Z,17.57
2019-05-11T11:38:47.911Z,18.50
2019-05-11T11:41:18.593Z,19.13
2019-05-11T11:43:48.399Z,19.10
2019-05-11T11:46:18.741Z,20.47
2019-05-11T11:48:48.938Z,19.17
2019-05-11T11:51:18.769Z,18.57
2019-05-11T11:53:48.042Z,17.53
2019-05-11T11:56:18.916Z,17.67
2019-05-11T11:58:48.750Z,16.10
2019-05-11T12:01:18.978Z,15.30
2019-05-11T12:03:48.869Z,16.57
2019-05-11T12:06:18.353Z,15.17
2019-05-11T12:08:49.614Z,16.20
2019-05-11T12:11:18.603Z,14.43
2019-05-11T12:13:47.896Z,14.03
2019-05-11T12:16:17.990Z,16.13
2019-05-11T12:18:48.655Z,13.83
2019-05-11T12:21:18.527Z,13.20
2019-05-11T12:23:48.531Z,13.10
2019-05-11T12:26:17.877Z,13.00
2019-05-11T12:28:48.719Z,13.00
2019-05-11T12:31:18.381Z,11.90
2019-05-11T12:33:48.197Z,10.60
2019-05-11T12:36:18.702Z,12.20
2019-05-11T12:38:48.792Z,9.70
2019-05-11T12:41:18.959Z,8.80
2019-05-11T12:43:49.000Z,8.77
2019-05-11T12:46:18.910Z,7.77
2019-05-11T12:48:48.441Z,8.17
2019-05-11T12:51:18.693Z,7.60
2019-05-11T12:53:47.765Z,8.00
2019-05-11T12:56:18.764Z,7.50
2019-05-11T12:58:48.983Z,7.47
2019-05-11T13:01:18.799Z,6.47
2019-05-11T13:03:49.230Z,6.80
2019-05-11T13:06:19.127Z,6.33
2019-05-11T13:08:48.058Z,8.30
2019-05-11T13:11:18.793Z,7.77
2019-05-11T13:13:48.438Z,8.53
2019-05-11T13:16:18.288Z,9.90
2019-05-11T13:18:48.716Z,8.87
2019-05-11T13:21:18.346Z,9.60
2019-05-11T13:23:48.824Z,8.77
2019-05-11T13:26:17.958Z,9.63
2019-05-11T13:28:48.416Z,9.20
2019-05-11T13:31:18.601Z,8.70
2019-05-11T13:33:48.050Z,10.63
2019-05-11T13:36:18.674Z,9.87
2019-05-11T13:38:48.384Z,8.23
2019-05-11T13:41:18.728Z,9.30
2019-05-11T13:43:48.608Z,12.87
2019-05-11T13:46:17.921Z,7.60
2019-05-11T13:48:47.667Z,8.30
2019-05-11T13:51:18.235Z,7.30
2019-05-11T13:53:48.141Z,6.90
2019-05-11T13:56:18.393Z,7.50
2019-05-11T13:58:48.811Z,6.93
2019-05-11T14:01:18.474Z,9.40
2019-05-11T14:03:48.385Z,9.30
2019-05-11T14:06:18.395Z,8.30
2019-05-11T14:08:48.214Z,7.33
2019-05-11T14:11:18.148Z,6.97
2019-05-11T14:13:47.997Z,7.00
2019-05-11T14:16:18.659Z,9.53
2019-05-11T14:18:48.849Z,6.60
2019-05-11T14:21:18.502Z,6.10
2019-05-11T14:23:48.365Z,6.00
2019-05-11T14:26:19.119Z,5.93
2019-05-11T14:31:18.978Z,6.47
2019-05-11T14:32:21.419Z,6.37
2019-05-11T14:33:48.838Z,6.10
2019-05-11T14:36:18.506Z,6.00
2019-05-11T14:38:48.768Z,5.43
2019-05-11T14:41:18.257Z,6.20
2019-05-11T14:43:48.784Z,6.70
2019-05-11T14:46:18.128Z,6.53
2019-05-11T14:48:48.056Z,6.10
2019-05-11T14:51:17.945Z,5.93
2019-05-11T14:53:48.096Z,6.53
2019-05-11T14:56:19.026Z,5.97
2019-05-11T14:58:49.023Z,5.17
2019-05-11T15:01:18.287Z,6.27
2019-05-11T15:03:48.570Z,6.60
2019-05-11T15:06:18.918Z,5.43
2019-05-11T15:08:47.903Z,6.37
2019-05-11T15:11:18.840Z,7.33
2019-05-11T15:13:48.874Z,5.80
2019-05-11T15:16:18.730Z,5.70
2019-05-11T15:18:48.488Z,5.50
2019-05-11T15:21:18.836Z,6.60
2019-05-11T15:23:47.806Z,6.57
2019-05-11T15:26:18.522Z,5.90
2019-05-11T15:28:48.614Z,6.03
2019-05-11T15:31:21.921Z,6.23
2019-05-11T15:33:48.853Z,6.30
2019-05-11T15:36:19.328Z,5.80
2019-05-11T15:38:48.099Z,6.37
2019-05-11T15:41:17.742Z,6.00
2019-05-11T15:43:48.075Z,6.07
2019-05-11T15:46:19.493Z,6.50
2019-05-11T15:48:56.608Z,6.37
2019-05-11T15:51:18.743Z,5.87
2019-05-11T15:53:47.617Z,6.00
2019-05-11T15:56:19.107Z,5.73
2019-05-11T15:58:48.619Z,5.97
2019-05-11T16:01:18.603Z,6.17
2019-05-11T16:03:49.677Z,6.50
2019-05-11T16:06:18.647Z,6.27
2019-05-11T16:08:47.147Z,6.17
2019-05-11T16:11:18.127Z,6.20
2019-05-11T16:13:48.225Z,6.70
2019-05-11T16:16:15.957Z,6.60
2019-05-11T16:18:44.386Z,6.00
2019-05-11T16:21:12.848Z,6.00
2019-05-11T16:23:41.274Z,6.67
2019-05-11T16:26:09.682Z,5.70
2019-05-11T16:28:38.463Z,6.50
2019-05-11T16:31:09.202Z,5.73
2019-05-11T16:33:37.266Z,5.80
2019-05-11T16:36:08.792Z,6.60
2019-05-11T16:38:38.023Z,6.50
2019-05-11T16:41:06.315Z,6.30
2019-05-11T16:43:34.803Z,5.93
2019-05-11T16:46:03.224Z,6.50
2019-05-11T16:48:31.724Z,5.40
2019-05-11T16:51:00.134Z,6.77
2019-05-11T16:53:28.608Z,6.47
2019-05-11T16:55:57.675Z,6.23
2019-05-11T16:58:27.809Z,6.57
2019-05-11T17:00:58.172Z,5.57
2019-05-11T17:03:27.973Z,6.73
2019-05-11T17:05:58.709Z,6.23
2019-05-11T17:08:27.634Z,5.93
2019-05-11T17:10:59.634Z,5.87
2019-05-11T17:13:28.258Z,6.10
2019-05-11T17:15:58.256Z,5.40
2019-05-11T17:18:28.325Z,5.03
2019-05-11T17:20:58.484Z,4.07
2019-05-11T17:23:30.965Z,3.37
2019-05-11T17:25:57.934Z,3.50
2019-05-11T17:28:26.539Z,2.70
2019-05-11T17:30:54.968Z,2.97
2019-05-11T17:33:23.470Z,3.00
2019-05-11T17:35:51.872Z,2.97
2019-05-11T17:38:20.453Z,2.27
2019-05-11T17:40:48.867Z,2.60
2019-05-11T17:43:18.131Z,2.67
2019-05-11T17:45:48.002Z,2.17
2019-05-11T17:48:17.873Z,2.30
2019-05-11T17:50:46.453Z,5.23
2019-05-11T17:53:14.858Z,2.70
2019-05-11T17:55:43.287Z,2.90
2019-05-11T17:58:11.702Z,2.47
2019-05-11T18:00:40.240Z,2.80
2019-05-11T18:03:11.157Z,2.50
2019-05-11T18:05:38.849Z,2.70
2019-05-11T18:08:08.758Z,2.47
2019-05-11T18:10:38.441Z,2.57
2019-05-11T18:13:07.034Z,2.83
2019-05-11T18:15:37.836Z,2.90
2019-05-11T18:18:05.884Z,2.03
2019-05-11T18:20:34.442Z,2.67
2019-05-11T18:23:02.949Z,2.40
2019-05-11T18:25:31.466Z,2.30
2019-05-11T18:27:59.897Z,2.70
2019-05-11T18:30:29.302Z,2.27
2019-05-11T18:32:59.518Z,2.10
2019-05-11T18:35:28.100Z,2.17
2019-05-11T18:37:56.515Z,4.40
2019-05-11T18:40:24.994Z,2.50
2019-05-11T18:42:53.434Z,2.47
2019-05-11T18:45:21.855Z,4.07
2019-05-11T18:47:50.294Z,2.70
2019-05-11T18:50:29.736Z,2.47
2019-05-11T18:52:49.295Z,2.77
2019-05-11T18:55:18.958Z,3.33
2019-05-11T18:57:48.997Z,2.77
2019-05-11T19:00:18.509Z,2.10
2019-05-11T19:02:49.351Z,2.77
2019-05-11T19:05:18.010Z,2.60
2019-05-11T19:07:48.158Z,2.60
2019-05-11T19:10:17.144Z,2.90
2019-05-11T19:12:45.608Z,3.10
2019-05-11T19:15:14.482Z,2.23
2019-05-11T19:17:42.898Z,2.10
2019-05-11T19:20:11.668Z,2.23
2019-05-11T19:22:40.168Z,3.47
2019-05-11T19:25:09.292Z,7.23
2019-05-11T19:27:37.752Z,6.40
2019-05-11T19:30:08.490Z,4.40
2019-05-11T19:32:38.378Z,4.10
2019-05-11T19:35:08.968Z,3.80
2019-05-11T19:37:38.595Z,2.77
2019-05-11T19:40:09.098Z,2.50
2019-05-11T19:42:58.712Z,2.30
2019-05-11T19:45:29.073Z,2.13
2019-05-11T19:47:57.749Z,2.30
2019-05-11T19:50:26.432Z,1.93
2019-05-11T19:52:54.874Z,2.07
2019-05-11T19:55:23.275Z,2.30
2019-05-11T19:57:51.707Z,2.10
2019-05-11T20:00:20.343Z,2.40
2019-05-11T20:02:48.743Z,3.00
2019-05-11T20:05:18.394Z,2.70
2019-05-11T20:07:49.301Z,2.57
2019-05-11T20:10:19.404Z,14.50
2019-05-11T20:12:48.593Z,2.40
2019-05-11T20:15:18.996Z,2.20
2019-05-11T20:20:37.679Z,3.50
2019-05-11T20:23:10.389Z,2.90
2019-05-11T20:25:38.884Z,2.60
2019-05-11T20:28:07.453Z,3.70
2019-05-11T20:30:36.146Z,3.13
2019-05-11T20:33:11.392Z,4.23
2019-05-11T20:35:43.807Z,2.40
2019-05-11T20:38:12.311Z,2.80
2019-05-11T20:40:48.478Z,2.30
2019-05-11T20:43:18.566Z,2.10
2019-05-11T20:45:48.637Z,2.10
2019-05-11T20:48:27.907Z,2.47
2019-05-11T20:51:00.786Z,2.53
2019-05-11T20:53:30.986Z,23.20
2019-05-11T20:56:01.043Z,3.93
2019-05-11T20:58:31.349Z,2.20
2019-05-11T21:00:59.941Z,3.13
2019-05-11T21:03:28.593Z,3.67
2019-05-11T21:05:58.579Z,3.47
2019-05-11T21:08:28.323Z,2.57
2019-05-11T21:10:59.954Z,2.30
2019-05-11T21:13:31.255Z,1.97
2019-05-11T21:15:59.738Z,2.60
2019-05-11T21:18:28.790Z,2.17
2019-05-11T21:20:57.749Z,2.33
2019-05-11T21:23:28.801Z,2.20
2019-05-11T21:25:56.783Z,3.20
2019-05-11T21:28:30.364Z,2.37
2019-05-11T21:30:58.598Z,7.67
2019-05-11T21:33:28.319Z,12.70
2019-05-11T21:36:00.469Z,8.50
2019-05-11T21:38:31.573Z,27.10
2019-05-11T21:40:57.960Z,2.50
2019-05-11T21:43:29.676Z,2.20
2019-05-11T21:46:01.317Z,2.40
2019-05-11T21:48:31.605Z,2.70
2019-05-11T21:51:00.247Z,3.37
2019-05-11T21:53:31.763Z,2.80
2019-05-11T21:56:01.877Z,3.07
2019-05-11T21:58:33.568Z,2.23
2019-05-11T22:01:03.898Z,2.77
2019-05-11T22:03:38.167Z,3.53
2019-05-11T22:06:08.578Z,5.57
2019-05-11T22:08:38.658Z,2.60
2019-05-11T22:11:08.673Z,2.30
2019-05-11T22:13:39.111Z,2.60
2019-05-11T22:16:08.668Z,2.37
2019-05-11T22:18:42.840Z,2.67
2019-05-11T22:21:12.740Z,2.70
2019-05-11T22:23:41.330Z,2.30
2019-05-11T22:26:09.928Z,3.40
2019-05-11T22:28:40.051Z,3.20
2019-05-11T22:31:11.745Z,2.70
2019-05-11T22:33:40.273Z,3.30
2019-05-11T22:36:08.879Z,4.50
2019-05-11T22:38:38.685Z,3.03
2019-05-11T22:41:11.276Z,3.00
2019-05-11T22:43:39.883Z,2.47
2019-05-11T22:46:11.614Z,3.40
2019-05-11T22:48:48.961Z,3.00
2019-05-11T22:51:18.353Z,3.20
2019-05-11T22:53:48.089Z,2.63
2019-05-11T22:56:17.555Z,2.70
2019-05-11T22:58:50.512Z,3.40
2019-05-11T23:01:19.131Z,3.37
2019-05-11T23:03:47.689Z,3.33
2019-05-11T23:06:18.068Z,2.60
2019-05-11T23:08:48.323Z,2.80
2019-05-11T23:11:17.960Z,3.10
2019-05-11T23:13:47.910Z,3.10
2019-05-11T23:16:18.039Z,3.00
2019-05-11T23:18:48.123Z,3.70
2019-05-11T23:21:16.654Z,3.00
2019-05-11T23:23:45.078Z,2.70
2019-05-11T23:26:13.530Z,2.97
2019-05-11T23:28:41.939Z,2.63
2019-05-11T23:31:10.478Z,3.50
2019-05-11T23:33:38.898Z,2.13
2019-05-11T23:36:07.842Z,2.73
2019-05-11T23:38:38.533Z,2.73
2019-05-11T23:41:08.294Z,2.90
2019-05-11T23:43:38.423Z,2.87
2019-05-11T23:46:08.262Z,2.50
2019-05-11T23:48:38.611Z,2.70
2019-05-11T23:51:08.757Z,2.43
2019-05-11T23:53:38.733Z,2.90
2019-05-11T23:56:07.431Z,2.87
2019-05-11T23:58:35.832Z,2.23
